• Join FlightAware (Why Join?)
  • Login
  • US Flag 
12:52AM EDT


 

Airport Tracker/Info


-or-


 

Live Flight TrackerFlight Track Log ✈ PDT4226 ✈ 20-Oct-2013 ✈ KPHL - KBGM

Flight Track Log - Related Links

Times and Time Zones

All times are in EDT time to prevent confusion due to time zone crossing. See the PDT4226 flight status page for this flight to view local times or setup timezone preferences in your user account.

Time Position Orientation Groundspeed Altitude Reporting Facility
EDT Latitude Longitude Course Direction KTS MPH feet Rate Location/Type
02:27PM 39.8667 -75.2667 293° West 109 125 700  Level Philadelphia TRACON
02:28PM 39.8833 -75.3167 293° West 156 180 1,600 780 Climbing Philadelphia TRACON
02:29PM 39.9000 -75.3833 288° West 175 201 2,400 660 Climbing Philadelphia TRACON
02:30PM 39.9167 -75.4333 294° West 173 199 3,100 660 Climbing Philadelphia TRACON
02:31PM 39.9333 -75.4833 294° West 175 201 3,700 660 Climbing Philadelphia TRACON
02:32PM 39.9500 -75.5333 294° West 178 205 4,400 660 Climbing Philadelphia TRACON
02:33PM 39.9833 -75.5833 311° West 185 213 5,000 240 Climbing Philadelphia TRACON
02:34PM 40.0333 -75.5667 14° North 211 243 5,000  Level Philadelphia TRACON
02:35PM 40.1000 -75.5667 360° North 202 232 5,000  Level Philadelphia TRACON
02:36PM 40.1500 -75.5333 27° Northeast 207 238 5,000 60 Level Philadelphia TRACON
02:37PM 40.2000 -75.5333 360° North 205 236 5,200 420 Climbing Philadelphia TRACON
02:38PM 40.2500 -75.5167 14° North 188 216 5,900 240 Climbing Philadelphia TRACON
02:40PM 40.3511 -75.5289 11° North  Level FlightAware Approximate
02:40PM 40.3814 -75.5008 11° North 249 287 6,000  Level New York Center
02:41PM 40.4336 -75.4936 North 219 252 6,000 300 Level New York Center
02:42PM 40.4881 -75.4919 North 193 222 6,700 660 Climbing New York Center
02:44PM 40.5659 -75.4713 11° North  Level FlightAware Approximate
02:51PM 40.9820 -75.4500 North  Level FlightAware Approximate
02:52PM 41.0416 -75.4506 357° North  Level FlightAware Approximate
02:53PM 41.1011 -75.4552 357° North  Level FlightAware Approximate
02:54PM 41.1605 -75.4598 357° North  Level FlightAware Approximate
02:55PM 41.2200 -75.4643 357° North  Level FlightAware Approximate
02:56PM 41.2796 -75.4667 North  Level FlightAware Approximate
02:57PM 41.3391 -75.4667 North  Level FlightAware Approximate
02:58PM 41.3987 -75.4667 North  Level FlightAware Approximate
02:59PM 41.4583 -75.4667 North  Level FlightAware Approximate
03:00PM 41.5077 -75.5076 323° Northwest  Level FlightAware Approximate
03:01PM 41.5554 -75.5552 323° Northwest  Level FlightAware Approximate
03:02PM 41.6031 -75.6029 323° Northwest  Level FlightAware Approximate
03:03PM 41.6508 -75.6507 323° Northwest  Level FlightAware Approximate
03:04PM 41.6985 -75.6985 323° Northwest  Level FlightAware Approximate
03:05PM 41.7510 -75.7348 339° North  Level FlightAware Approximate
03:06PM 41.8065 -75.7641 339° North  Level FlightAware Approximate
03:07PM 41.8619 -75.7934 338° Northwest  Level FlightAware Approximate
03:08PM 41.9173 -75.8227 338° Northwest  Level FlightAware Approximate
03:09PM 41.9727 -75.8522 338° Northwest  Level FlightAware Approximate
03:10PM 42.0284 -75.8808 340° North  Level FlightAware Approximate
03:11PM 42.0855 -75.9022 323° Northwest  Level FlightAware Approximate
03:12PM 42.1384 -75.9330 331° Northwest  Level FlightAware Approximate
03:13PM 42.1915 -75.9667 North  Level FlightAware Approximate
03:14PM 42.2000 -75.9667 North  Level FlightAware Approximate
03:15PM 42.2084 -75.9796 North  Level Estimated
03:16PM 42.2084 -75.9796 North  Level Estimated
03:17PM 42.2084 -75.9796 North  Level Estimated
03:18PM 42.2084 -75.9796 North  Level Estimated